Time;durP1;ratioP1;P1;durP2;ratioP2;P2;SDS_P1;SDS_P2;PMS_P1;PMS_P2;Temp;Humidity;BMP_temperature;BMP_pressure;BME280_temperature;BME280_humidity;BME280_pressure;Samples;Min_cycle;Max_cycle;Signal;HPM_P1;HPM_P2
2023/10/31 00:01:27;;;;;;;0.30;0.30;;;;;;;13.09;75.24;99737.41;5022140;28;20033;-81
2023/10/31 00:03:53;;;;;;;0.20;0.20;;;;;;;13.16;75.06;99744.16;5021825;28;20018;-80
2023/10/31 00:06:19;;;;;;;0.20;0.20;;;;;;;13.14;75.17;99750.50;5019200;28;20567;-81
2023/10/31 00:08:45;;;;;;;0.10;0.10;;;;;;;13.18;74.89;99750.25;5017758;28;20048;-81
2023/10/31 00:11:12;;;;;;;0.10;0.10;;;;;;;13.19;75.20;99744.00;5017163;28;20405;-82
2023/10/31 00:13:39;;;;;;;0.13;0.13;;;;;;;13.17;75.07;99745.91;5015712;28;20034;-82
2023/10/31 00:16:05;;;;;;;0.10;0.10;;;;;;;13.16;75.07;99748.59;5021311;28;20021;-82
2023/10/31 00:18:31;;;;;;;0.20;0.20;;;;;;;13.17;74.58;99739.69;5020836;28;20057;-82
2023/10/31 00:20:57;;;;;;;0.10;0.10;;;;;;;13.11;75.27;99740.88;5021418;28;20647;-82
2023/10/31 00:23:23;;;;;;;0.20;0.20;;;;;;;13.17;74.64;99737.03;5009294;28;20165;-82
2023/10/31 00:25:49;;;;;;;0.20;0.20;;;;;;;13.17;74.88;99740.59;5016848;28;20034;-82
2023/10/31 00:28:15;;;;;;;0.30;0.30;;;;;;;13.18;74.54;99746.75;5016257;28;20026;-82
2023/10/31 00:30:42;;;;;;;0.10;0.10;;;;;;;13.17;74.62;99748.56;5015421;28;20037;-83
2023/10/31 00:33:08;;;;;;;0.10;0.10;;;;;;;13.14;74.95;99751.34;5015645;28;20109;-82
2023/10/31 00:35:34;;;;;;;0.10;0.10;;;;;;;13.17;74.75;99740.59;5009405;28;20033;-83
2023/10/31 00:38:00;;;;;;;0.10;0.10;;;;;;;13.20;74.53;99748.41;5015545;28;20064;-79
2023/10/31 00:40:26;;;;;;;0.20;0.20;;;;;;;13.24;74.59;99741.13;5023432;28;20041;-82
2023/10/31 00:42:53;;;;;;;0.10;0.10;;;;;;;13.29;74.59;99748.91;5017001;28;20034;-83
2023/10/31 00:45:20;;;;;;;1.77;0.77;;;;;;;13.27;74.87;99751.59;5017038;28;20026;-84
2023/10/31 00:47:46;;;;;;;0.40;0.40;;;;;;;13.26;74.86;99745.44;5017208;28;20484;-84
2023/10/31 00:50:12;;;;;;;0.77;0.77;;;;;;;13.27;75.01;99755.16;5022227;28;20069;-82
2023/10/31 00:52:38;;;;;;;0.10;0.10;;;;;;;13.23;74.91;99756.25;5033980;28;20030;-82
2023/10/31 00:55:05;;;;;;;0.10;0.10;;;;;;;13.23;75.31;99756.25;5021078;28;20040;-82
2023/10/31 00:57:31;;;;;;;0.10;0.10;;;;;;;13.26;75.31;99760.56;5030146;28;20025;-83
2023/10/31 00:59:57;;;;;;;0.30;0.30;;;;;;;13.28;74.97;99756.00;5024048;28;20037;-82
2023/10/31 01:02:23;;;;;;;0.13;0.13;;;;;;;13.16;75.54;99762.78;5020457;28;20034;-82
2023/10/31 01:04:49;;;;;;;3.50;0.57;;;;;;;13.24;75.51;99765.06;5020757;28;20036;-82
2023/10/31 01:07:16;;;;;;;0.45;0.45;;;;;;;13.24;75.38;99765.91;5019310;28;20516;-82
2023/10/31 01:09:44;;;;;;;0.10;0.10;;;;;;;13.16;75.40;99765.44;5019660;28;20512;-82
2023/10/31 01:12:11;;;;;;;0.20;0.20;;;;;;;13.23;75.41;99766.88;5019693;28;20041;-81
2023/10/31 01:14:37;;;;;;;0.10;0.10;;;;;;;13.24;75.14;99778.38;5019792;28;20489;-81
2023/10/31 01:17:03;;;;;;;0.10;0.10;;;;;;;13.23;75.32;99782.84;5018211;28;20125;-81
2023/10/31 01:19:29;;;;;;;0.10;0.10;;;;;;;13.25;75.34;99775.63;5020067;28;20026;-81
2023/10/31 01:21:55;;;;;;;0.30;0.30;;;;;;;13.20;75.44;99776.81;5020858;28;20060;-81
2023/10/31 01:24:23;;;;;;;0.10;0.10;;;;;;;13.20;75.64;99782.13;5016398;28;20480;-82
2023/10/31 01:26:49;;;;;;;0.10;0.10;;;;;;;13.18;75.21;99779.50;5014163;28;20038;-82
2023/10/31 01:29:15;;;;;;;0.10;0.10;;;;;;;13.18;75.33;99784.84;5022689;28;20029;-82
2023/10/31 01:31:42;;;;;;;0.20;0.20;;;;;;;13.17;75.87;99783.13;5018091;28;20038;-83
2023/10/31 01:34:08;;;;;;;0.10;0.10;;;;;;;13.26;75.08;99781.81;5016965;28;20030;-81
2023/10/31 01:36:34;;;;;;;0.17;0.17;;;;;;;13.18;75.68;99790.16;5017788;28;20746;-82
2023/10/31 01:39:01;;;;;;;0.10;0.10;;;;;;;13.20;75.67;99796.28;5017747;28;20030;-82
2023/10/31 01:41:27;;;;;;;0.20;0.20;;;;;;;13.14;76.01;99799.22;5018527;28;20034;-82
2023/10/31 01:43:53;;;;;;;0.10;0.10;;;;;;;13.24;75.38;99800.50;5018695;28;20017;-82
2023/10/31 01:46:19;;;;;;;0.10;0.10;;;;;;;13.23;75.84;99808.56;5017397;28;20037;-81
2023/10/31 01:48:46;;;;;;;0.35;0.35;;;;;;;13.24;75.91;99805.81;5016802;28;20041;-81
2023/10/31 01:51:12;;;;;;;0.17;0.17;;;;;;;13.23;75.63;99812.09;5018177;28;20038;-81
2023/10/31 01:53:39;;;;;;;0.10;0.10;;;;;;;13.29;75.35;99823.38;5016516;28;20108;-82
2023/10/31 01:56:06;;;;;;;0.63;0.63;;;;;;;13.25;75.56;99820.84;5017902;28;20409;-82
2023/10/31 01:58:36;;;;;;;0.10;0.10;;;;;;;13.19;75.93;99822.94;5018051;28;20112;-79
2023/10/31 02:01:03;;;;;;;0.30;0.30;;;;;;;13.21;75.83;99827.25;5016568;28;20461;-83
2023/10/31 02:03:29;;;;;;;0.10;0.10;;;;;;;13.14;76.35;99825.81;5017151;28;20040;-82
2023/10/31 02:05:56;;;;;;;0.20;0.20;;;;;;;13.22;76.32;99829.00;5017282;28;20037;-81
2023/10/31 02:08:24;;;;;;;0.10;0.10;;;;;;;13.24;76.17;99832.41;5017474;28;20026;-82
2023/10/31 02:10:50;;;;;;;0.10;0.10;;;;;;;13.22;76.38;99836.97;5018080;28;20040;-82
2023/10/31 02:13:18;;;;;;;0.30;0.30;;;;;;;13.29;75.63;99836.69;5018763;28;20109;-82
2023/10/31 02:15:45;;;;;;;0.20;0.20;;;;;;;13.23;76.14;99835.16;5017070;28;20120;-82
2023/10/31 02:18:11;;;;;;;0.10;0.10;;;;;;;13.24;75.60;99837.75;5015454;28;20033;-81
2023/10/31 02:20:38;;;;;;;0.10;0.10;;;;;;;13.24;75.93;99832.41;5014811;28;20072;-82
2023/10/31 02:23:04;;;;;;;0.30;0.30;;;;;;;13.19;75.85;99834.44;5016538;28;20034;-82
2023/10/31 02:25:31;;;;;;;0.15;0.15;;;;;;;13.33;75.32;99840.91;5015391;28;20106;-82
2023/10/31 02:27:57;;;;;;;0.13;0.13;;;;;;;13.35;75.35;99839.06;5017054;28;20038;-81
2023/10/31 02:30:24;;;;;;;0.10;0.10;;;;;;;13.24;75.88;99845.72;5015358;28;20113;-81
2023/10/31 02:32:51;;;;;;;0.10;0.10;;;;;;;13.21;75.73;99845.88;5015903;28;20105;-79
2023/10/31 02:35:18;;;;;;;0.10;0.10;;;;;;;13.15;75.91;99848.81;5015165;28;20038;-80
2023/10/31 02:37:45;;;;;;;0.10;0.10;;;;;;;13.01;76.06;99856.56;5015563;28;20044;-81
2023/10/31 02:40:12;;;;;;;0.13;0.13;;;;;;;13.13;75.71;99863.97;5025749;28;20064;-81
2023/10/31 02:42:38;;;;;;;0.10;0.10;;;;;;;13.12;76.10;99856.94;5020616;28;20030;-81
2023/10/31 02:45:05;;;;;;;0.10;0.10;;;;;;;13.07;76.23;99862.47;5019663;28;20033;-81
2023/10/31 02:47:31;;;;;;;0.10;0.10;;;;;;;13.14;75.90;99862.19;5006244;28;20029;-80
2023/10/31 02:49:57;;;;;;;0.10;0.10;;;;;;;13.16;75.84;99863.84;4999693;28;20042;-81
2023/10/31 02:52:23;;;;;;;0.10;0.10;;;;;;;13.10;76.31;99862.31;5002422;28;20026;-81
2023/10/31 02:54:49;;;;;;;0.10;0.10;;;;;;;13.20;76.21;99870.75;5014391;28;20402;-81
2023/10/31 02:57:17;;;;;;;0.10;0.10;;;;;;;13.20;76.15;99868.09;5005931;28;20109;-80
2023/10/31 02:59:43;;;;;;;0.10;0.10;;;;;;;13.19;76.12;99865.50;5012058;28;20027;-81
2023/10/31 03:02:11;;;;;;;0.10;0.10;;;;;;;13.17;76.70;99870.91;5003643;28;20497;-82
2023/10/31 03:04:37;;;;;;;0.22;0.22;;;;;;;13.20;76.57;99870.75;5011767;28;20029;-82
2023/10/31 03:07:03;;;;;;;0.10;0.10;;;;;;;13.13;76.86;99868.44;5019047;28;20041;-81
2023/10/31 03:09:29;;;;;;;0.10;0.10;;;;;;;13.05;76.74;99871.47;5017868;28;20068;-82
2023/10/31 03:11:56;;;;;;;0.50;0.50;;;;;;;12.91;77.02;99877.38;4997170;28;20034;-82
2023/10/31 03:14:22;;;;;;;0.10;0.10;;;;;;;13.07;76.63;99885.53;5007489;28;20452;-82
2023/10/31 03:16:48;;;;;;;0.10;0.10;;;;;;;13.01;76.77;99884.03;5001318;28;20097;-82
2023/10/31 03:19:14;;;;;;;0.10;0.10;;;;;;;13.13;76.30;99889.72;5001042;28;20034;-82
2023/10/31 03:21:40;;;;;;;0.47;0.47;;;;;;;13.14;76.25;99894.13;5003898;28;20036;-82
2023/10/31 03:24:06;;;;;;;0.10;0.10;;;;;;;13.18;76.31;99885.91;5003733;28;20034;-81
2023/10/31 03:26:33;;;;;;;0.10;0.10;;;;;;;13.18;76.11;99885.06;5002401;28;20033;-81
2023/10/31 03:28:59;;;;;;;0.20;0.20;;;;;;;13.22;76.15;99898.16;5009316;28;20022;-81
2023/10/31 03:31:25;;;;;;;0.10;0.10;;;;;;;13.21;76.23;99896.41;5014549;28;20050;-81
2023/10/31 03:33:53;;;;;;;0.10;0.10;;;;;;;13.19;76.13;99900.94;5014615;28;20021;-82
2023/10/31 03:36:19;;;;;;;0.10;0.10;;;;;;;13.25;75.90;99898.00;5013555;28;20140;-83
2023/10/31 03:38:46;;;;;;;0.15;0.15;;;;;;;13.17;75.98;99893.97;5017904;28;20030;-83
2023/10/31 03:41:13;;;;;;;0.30;0.30;;;;;;;13.21;75.93;99907.06;5017797;28;20037;-83
2023/10/31 03:43:39;;;;;;;0.10;0.10;;;;;;;13.13;75.53;99917.16;4991998;28;20118;-82
2023/10/31 03:46:05;;;;;;;0.32;0.32;;;;;;;13.07;75.70;99913.00;4994200;28;20038;-83
2023/10/31 03:48:31;;;;;;;0.10;0.10;;;;;;;13.13;75.71;99917.16;5011075;28;20057;-82
2023/10/31 03:50:58;;;;;;;0.10;0.10;;;;;;;13.15;75.21;99915.31;5000594;28;20045;-83
2023/10/31 03:53:24;;;;;;;0.10;0.10;;;;;;;13.06;75.34;99913.06;4996801;28;20257;-82
2023/10/31 03:55:50;;;;;;;0.10;0.10;;;;;;;13.01;75.28;99915.06;4999446;28;20117;-82
2023/10/31 03:58:16;;;;;;;0.10;0.10;;;;;;;13.05;74.89;99916.69;5001847;28;20129;-82
2023/10/31 04:00:42;;;;;;;0.10;0.10;;;;;;;13.05;75.29;99912.22;5002873;28;20886;-81
2023/10/31 04:03:09;;;;;;;0.10;0.10;;;;;;;12.98;75.24;99915.22;5003730;28;20054;-81
2023/10/31 04:05:35;;;;;;;0.10;0.10;;;;;;;12.99;75.31;99908.97;5001916;28;20521;-82
2023/10/31 04:08:02;;;;;;;0.10;0.10;;;;;;;12.99;74.84;99917.81;5007210;28;20061;-81
2023/10/31 04:10:28;;;;;;;0.10;0.10;;;;;;;12.98;75.01;99918.72;5003103;28;20033;-81
2023/10/31 04:12:54;;;;;;;0.10;0.10;;;;;;;12.96;74.96;99917.94;5013058;28;20034;-83
2023/10/31 04:15:20;;;;;;;0.10;0.10;;;;;;;12.93;74.76;99924.28;4997703;28;20018;-83
2023/10/31 04:17:46;;;;;;;0.10;0.10;;;;;;;12.97;75.07;99918.81;5006982;28;20058;-83
2023/10/31 04:20:13;;;;;;;0.10;0.10;;;;;;;12.90;75.16;99919.06;5011244;28;20117;-82
2023/10/31 04:22:39;;;;;;;0.13;0.13;;;;;;;12.92;75.07;99919.88;5008948;28;20549;-82
2023/10/31 04:25:05;;;;;;;0.10;0.10;;;;;;;12.88;74.99;99926.25;5008938;28;20106;-82
2023/10/31 04:27:31;;;;;;;0.10;0.10;;;;;;;12.87;75.17;99924.53;5006683;28;20494;-84
2023/10/31 04:29:58;;;;;;;0.10;0.10;;;;;;;12.90;75.20;99939.50;5005939;28;20057;-84
2023/10/31 04:32:24;;;;;;;0.10;0.10;;;;;;;12.88;75.48;99942.19;5017729;28;20492;-84
2023/10/31 04:34:50;;;;;;;0.10;0.10;;;;;;;12.93;75.23;99945.53;5017975;28;20065;-82
2023/10/31 04:37:16;;;;;;;0.20;0.20;;;;;;;12.94;74.92;99951.72;5009776;28;20112;-82
2023/10/31 04:39:42;;;;;;;0.10;0.10;;;;;;;12.97;74.97;99946.25;5005735;28;20038;-82
2023/10/31 04:42:08;;;;;;;0.10;0.10;;;;;;;13.01;74.93;99950.50;5018380;28;20385;-82
2023/10/31 04:44:34;;;;;;;0.10;0.10;;;;;;;12.97;75.14;99959.53;5019308;28;20022;-82
2023/10/31 04:47:00;;;;;;;0.20;0.20;;;;;;;12.98;75.32;99955.09;5019053;28;20042;-82
2023/10/31 04:49:27;;;;;;;0.10;0.10;;;;;;;12.90;75.16;99956.28;5019259;28;20516;-81
2023/10/31 04:51:53;;;;;;;0.10;0.10;;;;;;;12.97;74.93;99964.00;5017185;28;20058;-82
2023/10/31 04:54:19;;;;;;;0.10;0.10;;;;;;;12.99;74.94;99962.16;5019073;28;20041;-81
2023/10/31 04:56:46;;;;;;;0.10;0.10;;;;;;;12.99;74.89;99959.50;5020041;28;20065;-81
2023/10/31 04:59:12;;;;;;;0.10;0.10;;;;;;;12.94;74.92;99965.00;5019800;28;20087;-82
2023/10/31 05:01:38;;;;;;;0.10;0.10;;;;;;;12.92;74.78;99967.75;5023165;28;20026;-82
2023/10/31 05:04:05;;;;;;;0.10;0.10;;;;;;;12.84;75.09;99975.16;5034860;28;20045;-81
2023/10/31 05:06:31;;;;;;;0.10;0.10;;;;;;;12.74;74.75;99977.38;5024888;28;20041;-82
2023/10/31 05:08:57;;;;;;;0.10;0.10;;;;;;;12.66;74.89;99978.63;5020237;28;20045;-83
2023/10/31 05:11:23;;;;;;;0.10;0.10;;;;;;;12.76;74.84;99979.94;5020173;28;20033;-83
2023/10/31 05:13:50;;;;;;;0.10;0.10;;;;;;;12.73;74.83;99990.72;5021083;28;20038;-83
2023/10/31 05:16:16;;;;;;;0.20;0.20;;;;;;;12.61;75.01;99987.66;5020606;28;20030;-82
2023/10/31 05:18:42;;;;;;;0.10;0.10;;;;;;;12.57;75.14;99991.38;5021159;28;20050;-82
2023/10/31 05:21:08;;;;;;;0.10;0.10;;;;;;;12.61;74.76;99992.97;5019348;28;20026;-83
2023/10/31 05:23:34;;;;;;;0.10;0.10;;;;;;;12.61;75.00;100000.94;5020143;28;20105;-82
2023/10/31 05:26:00;;;;;;;0.20;0.20;;;;;;;12.66;74.63;100000.75;5016636;28;20099;-82
2023/10/31 05:28:26;;;;;;;0.10;0.10;;;;;;;12.65;75.10;100006.13;5019170;28;20033;-82
2023/10/31 05:30:52;;;;;;;0.10;0.10;;;;;;;12.69;74.75;100005.09;5017789;28;20512;-82
2023/10/31 05:33:19;;;;;;;0.10;0.10;;;;;;;12.68;74.69;100009.50;5019509;28;20037;-82
2023/10/31 05:35:45;;;;;;;0.10;0.10;;;;;;;12.66;75.11;100007.84;5019876;28;20057;-81
2023/10/31 05:38:11;;;;;;;0.10;0.10;;;;;;;12.67;74.69;100009.59;5019979;28;20053;-82
2023/10/31 05:40:37;;;;;;;0.10;0.10;;;;;;;12.67;74.93;100010.44;5018591;28;20069;-82
2023/10/31 05:43:03;;;;;;;0.10;0.10;;;;;;;12.67;74.88;100012.25;5018559;28;20053;-82
2023/10/31 05:45:29;;;;;;;0.10;0.10;;;;;;;12.61;74.94;100029.28;5010497;28;20492;-82
2023/10/31 05:47:56;;;;;;;0.10;0.10;;;;;;;12.58;75.31;100027.63;5018622;28;20042;-82
2023/10/31 05:50:22;;;;;;;0.10;0.10;;;;;;;12.66;75.46;100031.78;5017958;28;20030;-82
2023/10/31 05:52:48;;;;;;;0.10;0.10;;;;;;;12.58;75.47;100030.28;5018627;28;20041;-82
2023/10/31 05:55:14;;;;;;;0.10;0.10;;;;;;;12.61;75.62;100032.84;5018362;28;20025;-82
2023/10/31 05:57:41;;;;;;;0.10;0.10;;;;;;;12.65;75.40;100036.22;5018719;28;20026;-81
2023/10/31 06:00:08;;;;;;;0.10;0.10;;;;;;;12.60;75.49;100032.91;5016027;28;20109;-82
2023/10/31 06:02:34;;;;;;;0.10;0.10;;;;;;;12.59;75.65;100037.34;5017790;28;20025;-82
2023/10/31 06:05:00;;;;;;;0.10;0.10;;;;;;;12.58;75.90;100034.75;5017579;28;20080;-82
2023/10/31 06:07:26;;;;;;;0.10;0.10;;;;;;;12.61;75.97;100038.16;5016813;28;20034;-82
2023/10/31 06:09:52;;;;;;;0.10;0.10;;;;;;;12.61;75.43;100039.94;5018311;28;20046;-82
2023/10/31 06:12:18;;;;;;;0.10;0.10;;;;;;;12.58;75.82;100040.91;5018133;28;20038;-81
2023/10/31 06:14:44;;;;;;;0.10;0.10;;;;;;;12.68;75.36;100040.56;5017061;28;20036;-82
2023/10/31 06:17:10;;;;;;;0.10;0.10;;;;;;;12.70;75.73;100038.72;5012785;28;20030;-82
2023/10/31 06:19:37;;;;;;;0.10;0.10;;;;;;;12.64;75.84;100054.91;5018782;28;20045;-81
2023/10/31 06:22:04;;;;;;;0.10;0.10;;;;;;;12.68;75.65;100046.72;5018752;28;20033;-81
2023/10/31 06:24:30;;;;;;;0.10;0.10;;;;;;;12.73;75.63;100051.84;5017605;28;20129;-82
2023/10/31 06:26:56;;;;;;;0.10;0.10;;;;;;;12.68;75.99;100054.69;5009969;28;20069;-81
2023/10/31 06:29:22;;;;;;;0.20;0.20;;;;;;;12.60;75.99;100056.81;5017033;28;20054;-81
2023/10/31 06:31:48;;;;;;;0.10;0.10;;;;;;;12.48;75.90;100058.19;5013004;28;20065;-82
2023/10/31 06:34:14;;;;;;;1.75;1.30;;;;;;;12.59;76.00;100058.59;5015711;28;20022;-83
2023/10/31 06:36:41;;;;;;;0.10;0.10;;;;;;;12.51;75.73;100066.03;5012901;28;20480;-83
2023/10/31 06:39:07;;;;;;;0.10;0.10;;;;;;;12.40;76.23;100070.88;5019854;28;20120;-83
2023/10/31 06:41:33;;;;;;;0.10;0.10;;;;;;;12.46;75.86;100074.19;5009445;28;20030;-80
2023/10/31 06:43:59;;;;;;;0.20;0.20;;;;;;;12.37;75.80;100073.69;5017070;28;20030;-80
2023/10/31 06:46:25;;;;;;;0.10;0.10;;;;;;;12.35;76.01;100070.22;5014867;28;20046;-79
2023/10/31 06:48:51;;;;;;;0.10;0.10;;;;;;;12.38;75.26;100075.41;5020319;28;20030;-80
2023/10/31 06:51:18;;;;;;;0.10;0.10;;;;;;;12.29;75.45;100077.50;5014444;28;20045;-82
2023/10/31 06:53:45;;;;;;;0.10;0.10;;;;;;;12.30;75.17;100084.56;5020475;28;20156;-81
2023/10/31 06:56:11;;;;;;;0.20;0.20;;;;;;;12.28;75.35;100086.38;5018853;28;20045;-80
2023/10/31 06:58:37;;;;;;;0.17;0.17;;;;;;;12.33;75.49;100088.03;5013646;28;20090;-80
2023/10/31 07:01:03;;;;;;;0.10;0.10;;;;;;;12.32;75.17;100094.25;5011974;28;20097;-80
2023/10/31 07:03:29;;;;;;;0.10;0.10;;;;;;;12.23;74.85;100098.13;5013032;28;20033;-81
2023/10/31 07:05:56;;;;;;;0.10;0.10;;;;;;;12.25;75.06;100104.22;5012317;28;20046;-81
2023/10/31 07:08:23;;;;;;;0.10;0.10;;;;;;;12.23;75.58;100106.97;5018828;28;20030;-79
2023/10/31 07:10:49;;;;;;;0.20;0.20;;;;;;;12.21;74.96;100108.84;5003385;28;20104;-79
2023/10/31 07:13:16;;;;;;;0.10;0.10;;;;;;;12.21;75.77;100114.13;5014601;28;20037;-80
2023/10/31 07:15:42;;;;;;;0.10;0.10;;;;;;;12.23;74.90;100120.25;5012060;28;20101;-80
2023/10/31 07:18:08;;;;;;;0.10;0.10;;;;;;;12.16;75.52;100116.06;5016051;28;20054;-80
2023/10/31 07:20:35;;;;;;;0.10;0.10;;;;;;;12.24;75.68;100114.00;5011977;28;20440;-81
2023/10/31 07:23:01;;;;;;;0.10;0.10;;;;;;;12.23;75.54;100114.94;5014140;28;20022;-81
2023/10/31 07:25:27;;;;;;;0.10;0.10;;;;;;;12.36;75.31;100115.34;5008443;28;20117;-81
2023/10/31 07:27:53;;;;;;;0.10;0.10;;;;;;;12.39;75.95;100125.81;5012099;28;20061;-80
2023/10/31 07:30:19;;;;;;;0.20;0.20;;;;;;;12.49;75.84;100123.69;5008809;28;20037;-81
2023/10/31 07:32:45;;;;;;;0.20;0.20;;;;;;;12.49;76.15;100129.00;5014102;28;20030;-81
2023/10/31 07:35:11;;;;;;;0.10;0.10;;;;;;;12.58;76.10;100139.25;5016067;28;20076;-80
2023/10/31 07:37:37;;;;;;;0.10;0.10;;;;;;;12.56;76.35;100138.47;5012250;28;20042;-81
2023/10/31 07:40:04;;;;;;;0.10;0.10;;;;;;;12.59;76.53;100134.81;5014389;28;20489;-82
2023/10/31 07:42:30;;;;;;;0.10;0.10;;;;;;;12.64;76.56;100135.50;5010827;28;20661;-81
2023/10/31 07:44:56;;;;;;;0.10;0.10;;;;;;;12.79;76.38;100141.97;5013550;28;20026;-81
2023/10/31 07:47:22;;;;;;;0.20;0.20;;;;;;;12.75;76.67;100140.38;5017103;28;20080;-80
2023/10/31 07:49:48;;;;;;;0.10;0.10;;;;;;;12.88;76.84;100138.94;5007958;28;20030;-81
2023/10/31 07:52:15;;;;;;;0.10;0.10;;;;;;;12.92;76.48;100142.34;5012341;28;20032;-81
2023/10/31 07:54:41;;;;;;;0.10;0.10;;;;;;;12.88;76.79;100141.59;5013296;28;20018;-81
2023/10/31 07:57:07;;;;;;;0.10;0.10;;;;;;;13.02;76.26;100143.72;5010827;28;20064;-81
2023/10/31 07:59:34;;;;;;;0.10;0.10;;;;;;;13.02;76.01;100142.81;5012185;28;20030;-80
2023/10/31 08:02:00;;;;;;;0.10;0.10;;;;;;;13.05;76.04;100151.53;5020569;28;20034;-80
2023/10/31 08:04:28;;;;;;;0.25;0.25;;;;;;;13.07;75.89;100143.50;5017037;28;20040;-80
2023/10/31 08:06:54;;;;;;;0.10;0.10;;;;;;;13.09;76.13;100149.63;5016147;28;20038;-80
2023/10/31 08:09:20;;;;;;;0.10;0.10;;;;;;;13.05;76.12;100138.25;5014844;28;20033;-81
2023/10/31 08:11:46;;;;;;;0.10;0.10;;;;;;;13.07;75.63;100148.81;5012921;28;20451;-81
2023/10/31 08:14:12;;;;;;;0.10;0.10;;;;;;;13.11;76.09;100147.78;5018770;28;20117;-81
2023/10/31 08:16:38;;;;;;;0.20;0.20;;;;;;;13.09;76.28;100145.16;5017330;28;20033;-82
2023/10/31 08:19:04;;;;;;;0.20;0.20;;;;;;;13.14;75.98;100152.97;5012192;28;20401;-81
2023/10/31 08:21:34;;;;;;;0.10;0.10;;;;;;;13.18;76.29;100151.88;5014311;28;20576;-81
2023/10/31 08:24:02;;;;;;;0.10;0.10;;;;;;;13.20;76.19;100155.34;5016236;28;20026;-80
2023/10/31 08:26:28;;;;;;;0.20;0.20;;;;;;;13.29;76.00;100148.78;5018920;28;20175;-81
2023/10/31 08:28:54;;;;;;;0.25;0.25;;;;;;;13.33;75.90;100154.84;5014727;28;20038;-80
2023/10/31 08:31:21;;;;;;;0.40;0.40;;;;;;;13.32;76.11;100154.00;5014235;28;20110;-80
2023/10/31 08:33:47;;;;;;;0.30;0.30;;;;;;;13.36;76.08;100160.91;5014558;28;20053;-80
2023/10/31 08:36:13;;;;;;;0.38;0.38;;;;;;;13.30;76.62;100160.31;5011601;28;20374;-80
2023/10/31 08:38:39;;;;;;;0.10;0.10;;;;;;;13.46;76.44;100161.41;5018774;28;20124;-80
2023/10/31 08:41:05;;;;;;;0.10;0.10;;;;;;;13.50;76.27;100168.31;5018835;28;20519;-80
2023/10/31 08:43:32;;;;;;;0.50;0.50;;;;;;;13.52;76.53;100176.22;5020076;28;20083;-80
2023/10/31 08:45:58;;;;;;;0.10;0.10;;;;;;;13.57;76.44;100171.56;5020320;28;20580;-80
2023/10/31 08:48:24;;;;;;;0.20;0.20;;;;;;;13.63;76.75;100173.13;5012240;28;20034;-81
2023/10/31 08:50:50;;;;;;;0.10;0.10;;;;;;;13.66;76.94;100168.53;5017297;28;20056;-82
2023/10/31 08:53:19;;;;;;;0.10;0.10;;;;;;;13.80;76.56;100181.22;5015751;28;20033;-80
2023/10/31 08:55:45;;;;;;;0.10;0.10;;;;;;;13.67;76.94;100180.03;5013745;28;20113;-81
2023/10/31 08:58:12;;;;;;;0.57;0.57;;;;;;;13.87;76.35;100187.16;5018810;28;20041;-80
2023/10/31 09:00:40;;;;;;;0.85;0.85;;;;;;;13.98;76.33;100192.00;5016796;28;20489;-81
2023/10/31 09:03:07;;;;;;;0.10;0.10;;;;;;;13.94;76.82;100193.94;5017796;28;20034;-80
2023/10/31 09:05:34;;;;;;;1.98;1.80;;;;;;;14.01;76.51;100191.88;5014582;28;20018;-80
2023/10/31 09:08:00;;;;;;;0.35;0.35;;;;;;;14.22;76.40;100190.88;5018224;28;20125;-80
2023/10/31 09:10:26;;;;;;;0.45;0.45;;;;;;;14.28;76.20;100196.88;5010958;28;20026;-80
2023/10/31 09:12:52;;;;;;;0.03;0.03;;;;;;;14.42;75.95;100189.13;5012266;28;20129;-81
2023/10/31 09:15:18;;;;;;;0.10;0.10;;;;;;;14.53;75.79;100197.47;5022242;28;20033;-81
2023/10/31 09:17:45;;;;;;;0.10;0.10;;;;;;;14.56;75.71;100199.97;5024546;28;20060;-82
2023/10/31 09:20:11;;;;;;;0.30;0.30;;;;;;;14.65;75.57;100196.03;5011015;28;20031;-81
2023/10/31 09:22:38;;;;;;;1.15;0.63;;;;;;;14.70;75.35;100201.16;5014913;28;20119;-82
2023/10/31 09:25:04;;;;;;;0.25;0.25;;;;;;;14.62;75.11;100203.31;5016258;28;20053;-81
2023/10/31 09:27:30;;;;;;;0.10;0.10;;;;;;;14.65;75.23;100212.03;5016604;28;20068;-82
2023/10/31 09:29:57;;;;;;;0.10;0.10;;;;;;;14.63;75.03;100210.34;5018428;28;20022;-82
2023/10/31 09:32:23;;;;;;;0.90;0.90;;;;;;;14.67;74.80;100214.66;5018990;28;20041;-82
2023/10/31 09:34:49;;;;;;;0.10;0.10;;;;;;;14.66;74.78;100223.59;5013015;28;20025;-82
2023/10/31 09:37:15;;;;;;;0.00;0.00;;;;;;;14.70;74.74;100225.16;5018063;28;20048;-82
2023/10/31 09:39:41;;;;;;;0.20;0.20;;;;;;;14.73;74.50;100227.69;5013552;28;20042;-80
2023/10/31 09:42:07;;;;;;;2.00;1.05;;;;;;;14.71;74.79;100233.09;5016653;28;20048;-83
2023/10/31 09:44:34;;;;;;;0.10;0.10;;;;;;;14.71;74.29;100232.22;5018524;28;20053;-82
2023/10/31 09:47:01;;;;;;;0.03;0.03;;;;;;;14.59;73.66;100230.97;5018724;28;20130;-82
2023/10/31 09:49:28;;;;;;;0.10;0.10;;;;;;;14.71;73.83;100229.56;5009606;28;20062;-82
2023/10/31 09:51:54;;;;;;;0.10;0.10;;;;;;;14.61;73.29;100222.91;5012084;28;20029;-81
2023/10/31 09:54:21;;;;;;;0.15;0.15;;;;;;;14.55;72.70;100227.59;5014476;28;20040;-82
2023/10/31 09:56:47;;;;;;;0.10;0.10;;;;;;;14.65;73.20;100230.69;5009342;28;20029;-82
2023/10/31 09:59:16;;;;;;;0.20;0.20;;;;;;;14.65;72.90;100232.53;5009223;28;20031;-82
2023/10/31 10:01:42;;;;;;;0.10;0.10;;;;;;;14.69;73.31;100237.66;5020126;28;20026;-81
2023/10/31 10:04:09;;;;;;;0.10;0.10;;;;;;;14.82;73.64;100245.91;5026380;28;20018;-81
2023/10/31 10:06:39;;;;;;;0.10;0.10;;;;;;;14.88;73.57;100248.28;5020047;28;20065;-82
2023/10/31 10:09:08;;;;;;;0.10;0.10;;;;;;;15.02;73.16;100244.97;5018135;28;20038;-80
2023/10/31 10:11:34;;;;;;;0.10;0.10;;;;;;;15.02;72.43;100255.63;5020030;28;20033;-81
2023/10/31 10:14:00;;;;;;;0.15;0.15;;;;;;;15.25;72.61;100252.78;5015486;28;20058;-81
2023/10/31 10:16:30;;;;;;;0.10;0.10;;;;;;;15.30;72.80;100261.44;5019931;28;20049;-81
2023/10/31 10:18:56;;;;;;;0.10;0.10;;;;;;;15.29;72.83;100267.72;5020714;28;20034;-82
2023/10/31 10:21:22;;;;;;;0.10;0.10;;;;;;;15.32;71.62;100264.91;5016531;28;20117;-82
2023/10/31 10:23:51;;;;;;;0.20;0.20;;;;;;;15.31;71.61;100266.69;5018623;28;20144;-80
2023/10/31 10:26:20;;;;;;;0.60;0.60;;;;;;;15.52;72.19;100270.09;5019894;28;20029;-80
2023/10/31 10:28:50;;;;;;;0.47;0.47;;;;;;;15.60;72.06;100269.75;5011512;28;20029;-81
2023/10/31 10:31:16;;;;;;;0.10;0.10;;;;;;;15.76;72.03;100274.31;5008956;28;20034;-82
2023/10/31 10:33:42;;;;;;;0.10;0.10;;;;;;;15.69;71.52;100285.28;5016787;28;20041;-83
2023/10/31 10:36:10;;;;;;;0.20;0.20;;;;;;;15.73;70.83;100288.69;5015061;28;20037;-83
2023/10/31 10:38:37;;;;;;;2.17;1.85;;;;;;;15.70;71.30;100288.81;5017093;28;20507;-81
2023/10/31 10:41:06;;;;;;;1.75;0.43;;;;;;;15.65;71.32;100277.50;5009774;28;20113;-82
2023/10/31 10:43:37;;;;;;;0.40;0.32;;;;;;;15.63;71.61;100276.75;5016411;28;20045;-81
2023/10/31 10:46:05;;;;;;;0.10;0.10;;;;;;;15.63;72.03;100292.75;5011215;28;20042;-82
2023/10/31 10:48:35;;;;;;;0.10;0.10;;;;;;;15.57;71.33;100287.72;5010474;28;20116;-81
2023/10/31 10:53:57;;;;;;;0.05;0.05;;;;;;;15.61;71.63;100297.31;5113615;27;20412;-81
2023/10/31 10:56:33;;;;;;;0.65;0.30;;;;;;;15.66;71.99;100293.47;5096139;28;20108;-82
2023/10/31 10:59:06;;;;;;;0.50;0.50;;;;;;;15.62;71.66;100293.69;5085050;28;20021;-82
2023/10/31 11:01:35;;;;;;;0.60;0.40;;;;;;;15.57;71.61;100295.72;5093294;28;20028;-83
2023/10/31 11:04:01;;;;;;;0.30;0.30;;;;;;;15.54;71.89;100291.41;5087796;28;20053;-83
2023/10/31 11:06:29;;;;;;;0.10;0.10;;;;;;;15.45;72.28;100295.41;5083514;28;20032;-83
2023/10/31 11:08:56;;;;;;;0.32;0.32;;;;;;;15.42;72.31;100300.03;5086553;28;20032;-84
2023/10/31 11:11:23;;;;;;;0.10;0.10;;;;;;;15.44;72.31;100298.13;5090636;28;20396;-82
2023/10/31 11:13:51;;;;;;;0.35;0.35;;;;;;;15.40;72.41;100293.88;5090614;28;20036;-82
2023/10/31 11:16:29;;;;;;;0.40;0.40;;;;;;;15.40;72.19;100297.41;5089978;28;20028;-83
2023/10/31 11:18:56;;;;;;;0.00;0.00;;;;;;;15.40;72.33;100300.06;5083778;28;20035;-82
2023/10/31 11:21:23;;;;;;;0.60;0.60;;;;;;;15.33;72.72;100293.34;5097451;28;20021;-82
2023/10/31 11:24:05;;;;;;;2.53;1.48;;;;;;;15.39;71.98;100309.06;5095317;28;20035;-82
2023/10/31 11:26:32;;;;;;;1.75;0.45;;;;;;;15.24;72.66;100310.66;5087217;28;20111;-83
2023/10/31 11:29:13;;;;;;;0.20;0.20;;;;;;;15.29;72.41;100313.09;5086612;28;20077;-83